Time;durP1;ratioP1;P1;durP2;ratioP2;P2;SDS_P1;SDS_P2;PMS_P1;PMS_P2;Temp;Humidity;BMP_temperature;BMP_pressure;BME280_temperature;BME280_humidity;BME280_pressure;Samples;Min_cycle;Max_cycle;Signal;HPM_P1;HPM_P2
2022/05/19 00:00:08;;;;;;;3.25;2.42;;;;;;;18.81;46.47;96131.66;4989653;28;20203;-88
2022/05/19 00:02:44;;;;;;;2.85;2.55;;;;;;;18.72;46.61;96133.72;4990936;28;20211;-88
2022/05/19 00:05:19;;;;;;;4.32;2.47;;;;;;;18.76;47.16;96127.06;4979188;28;20199;-88
2022/05/19 00:07:53;;;;;;;2.78;2.53;;;;;;;18.67;47.10;96122.31;4989723;28;20234;-88
2022/05/19 00:10:42;;;;;;;4.28;2.88;;;;;;;18.59;46.88;96129.41;4983760;28;20204;-88
2022/05/19 00:13:08;;;;;;;5.40;2.65;;;;;;;18.60;47.07;96125.00;4982386;28;20195;-87
2022/05/19 00:15:50;;;;;;;7.25;2.85;;;;;;;18.54;47.27;96128.41;4989666;28;20234;-88
2022/05/19 00:18:39;;;;;;;5.40;2.80;;;;;;;18.42;47.77;96128.31;4982595;28;20225;-88
2022/05/19 00:21:06;;;;;;;3.28;2.67;;;;;;;18.28;48.13;96118.97;4982703;28;20199;-88
2022/05/19 00:23:41;;;;;;;4.32;2.75;;;;;;;18.28;47.99;96117.16;4989813;28;20222;-88
2022/05/19 00:26:16;;;;;;;6.07;2.80;;;;;;;18.26;48.38;96116.59;4984435;28;20238;-89
2022/05/19 00:28:50;;;;;;;3.92;2.63;;;;;;;18.27;48.56;96110.38;4989783;28;20567;-88
2022/05/19 00:31:29;;;;;;;3.03;2.75;;;;;;;18.15;48.84;96112.06;4990111;28;20306;-88
2022/05/19 00:34:00;;;;;;;3.25;2.95;;;;;;;18.21;48.74;96107.81;4989142;28;20199;-88
2022/05/19 00:36:28;;;;;;;3.50;3.05;;;;;;;18.18;48.95;96110.84;4988104;28;20702;-88
2022/05/19 00:39:14;;;;;;;3.58;3.00;;;;;;;18.23;48.51;96113.63;4990399;28;20227;-88
2022/05/19 00:42:43;;;;;;;2.92;2.70;;;;;;;18.05;49.51;96111.72;4981644;28;20207;-88
2022/05/19 00:44:39;;;;;;;4.15;2.92;;;;;;;18.02;49.37;96104.31;4985556;28;20274;-88
2022/05/19 00:47:17;;;;;;;3.22;2.75;;;;;;;18.10;48.94;96109.28;4988674;28;20227;-88
2022/05/19 00:52:58;;;;;;;5.47;2.80;;;;;;;18.24;48.88;96102.19;4988132;28;20279;-88
2022/05/19 00:55:50;;;;;;;2.97;2.65;;;;;;;18.16;48.61;96098.00;4989243;28;20211;-88
2022/05/19 01:01:12;;;;;;;4.22;2.70;;;;;;;18.25;48.65;96107.19;4981692;28;20279;-88
2022/05/19 01:03:57;;;;;;;4.47;2.90;;;;;;;18.19;48.83;96099.41;4989081;28;20254;-88
2022/05/19 01:06:47;;;;;;;4.75;2.65;;;;;;;18.21;48.53;96098.19;4988385;28;20232;-88
2022/05/19 01:09:38;;;;;;;3.88;2.95;;;;;;;18.22;48.83;96102.38;4987229;28;20207;-88
2022/05/19 01:12:21;;;;;;;3.65;3.00;;;;;;;18.10;49.36;96105.88;4971000;28;20695;-88
2022/05/19 01:15:09;;;;;;;3.85;2.88;;;;;;;18.13;49.37;96108.84;4986343;28;20204;-88
2022/05/19 01:20:31;;;;;;;2.70;2.45;;;;;;;18.13;49.92;96105.44;4985916;28;20227;-88
2022/05/19 01:23:19;;;;;;;4.78;2.67;;;;;;;18.13;49.89;96105.44;4988627;28;20227;-88
2022/05/19 01:29:04;;;;;;;3.03;2.65;;;;;;;18.06;50.64;96112.53;4986883;28;20242;-87
2022/05/19 01:32:00;;;;;;;3.03;2.67;;;;;;;18.11;49.99;96100.44;4989544;28;20199;-88
2022/05/19 01:34:35;;;;;;;3.70;2.90;;;;;;;18.02;50.18;96100.91;4976505;28;20680;-88
2022/05/19 01:37:14;;;;;;;4.85;3.22;;;;;;;17.79;51.05;96098.84;4988410;28;20227;-87
2022/05/19 01:40:07;;;;;;;3.20;2.90;;;;;;;17.69;50.99;96101.91;4989004;28;20211;-87
2022/05/19 01:42:57;;;;;;;3.00;2.80;;;;;;;17.76;50.97;96099.25;4988909;28;20238;-88
2022/05/19 01:45:53;;;;;;;3.85;3.00;;;;;;;17.74;51.33;96099.47;4985672;28;20203;-88
2022/05/19 01:51:39;;;;;;;6.25;3.03;;;;;;;17.38;51.94;96094.78;4983670;28;20199;-88
2022/05/19 01:54:13;;;;;;;2.67;2.47;;;;;;;17.54;51.99;96096.91;4988827;28;20199;-87
2022/05/19 01:56:49;;;;;;;2.92;2.67;;;;;;;17.51;52.03;96096.56;4988647;28;20234;-88
2022/05/19 01:59:33;;;;;;;3.00;2.67;;;;;;;17.51;51.60;96099.94;4988836;28;20214;-88
2022/05/19 02:02:24;;;;;;;4.53;2.70;;;;;;;17.54;52.02;96098.72;4989662;28;20199;-88
2022/05/19 02:07:57;;;;;;;3.22;2.88;;;;;;;17.53;52.54;96097.91;4976878;28;20235;-88
2022/05/19 02:13:34;;;;;;;3.20;2.90;;;;;;;17.38;52.70;96107.00;4976381;28;20691;-88
2022/05/19 02:19:43;;;;;;;3.00;2.75;;;;;;;17.40;53.11;96105.78;4924025;28;20229;-89
2022/05/19 02:22:48;;;;;;;3.35;2.90;;;;;;;17.42;53.24;96103.78;4991225;28;20199;-88
2022/05/19 02:25:46;;;;;;;3.70;3.40;;;;;;;17.14;54.57;96096.25;4990471;28;20783;-88
2022/05/19 02:37:28;;;;;;;4.78;2.88;;;;;;;16.45;56.07;96101.13;4973903;28;20227;-88
2022/05/19 02:40:00;;;;;;;4.85;2.92;;;;;;;16.44;56.06;96099.53;4946985;28;20218;-88
2022/05/19 02:42:33;;;;;;;4.43;2.97;;;;;;;16.34;56.60;96099.16;4992339;28;20199;-88
2022/05/19 02:45:32;;;;;;;3.40;3.00;;;;;;;16.43;56.01;96092.75;4990840;28;20295;-88
2022/05/19 02:51:09;;;;;;;4.57;2.80;;;;;;;16.61;55.71;96105.13;4988735;28;20227;-88
2022/05/19 02:53:53;;;;;;;5.18;2.85;;;;;;;16.52;56.14;96096.75;4991438;28;20203;-88
2022/05/19 02:59:43;;;;;;;3.15;2.85;;;;;;;16.34;56.83;96093.94;4990587;28;20226;-87
2022/05/19 03:02:20;;;;;;;3.83;2.95;;;;;;;16.29;56.88;96098.94;4991494;28;20692;-88
2022/05/19 03:04:56;;;;;;;3.30;2.90;;;;;;;16.33;56.66;96095.75;4988884;28;20262;-88
2022/05/19 03:07:38;;;;;;;6.32;3.10;;;;;;;16.31;56.35;96091.75;4985941;28;20227;-88
2022/05/19 03:10:43;;;;;;;3.80;3.25;;;;;;;16.36;56.18;96099.72;4983590;28;20222;-88
2022/05/19 03:13:29;;;;;;;3.55;3.10;;;;;;;16.48;56.10;96098.94;4990739;28;20192;-88
2022/05/19 03:16:13;;;;;;;3.58;3.05;;;;;;;16.64;55.63;96095.16;4991971;28;20218;-88
2022/05/19 03:18:50;;;;;;;4.35;3.05;;;;;;;16.70;55.62;96102.16;4988760;28;20302;-88
2022/05/19 03:21:27;;;;;;;6.70;3.50;;;;;;;16.65;55.82;96096.75;4991954;28;20232;-88
2022/05/19 03:24:02;;;;;;;3.25;2.95;;;;;;;16.50;56.18;96099.53;4990759;28;20229;-88
2022/05/19 03:26:51;;;;;;;5.45;3.03;;;;;;;16.24;57.33;96099.53;4991163;28;20195;-89
2022/05/19 03:29:52;;;;;;;;;;;;;;;;;;;;;
2022/05/19 03:32:29;;;;;;;3.67;3.30;;;;;;;16.06;57.58;96101.91;4985482;28;20647;-88
2022/05/19 03:42:34;;;;;;;3.58;3.17;;;;;;;16.01;58.75;96107.69;4917225;28;20257;-87
2022/05/19 03:51:52;;;;;;;3.72;3.30;;;;;;;16.54;57.54;96102.56;4985370;28;20214;-88
2022/05/19 03:54:32;;;;;;;3.42;2.92;;;;;;;16.59;58.01;96098.31;4990035;28;20207;-88
2022/05/19 03:57:20;;;;;;;3.28;3.03;;;;;;;16.53;58.37;96106.16;4988569;28;20317;-87
2022/05/19 03:59:46;;;;;;;5.18;3.58;;;;;;;16.52;58.70;96101.94;4998579;28;20594;-86
2022/05/19 04:02:13;;;;;;;4.70;3.38;;;;;;;16.60;58.70;96109.53;4989407;28;20203;-85
2022/05/19 04:04:48;;;;;;;3.92;3.25;;;;;;;16.60;58.79;96106.94;4990483;28;20219;-87
2022/05/19 04:07:15;;;;;;;3.33;3.00;;;;;;;16.63;58.32;96108.34;4990174;28;20280;-86
2022/05/19 04:09:42;;;;;;;3.70;3.40;;;;;;;16.73;58.23;96108.78;4991715;28;20567;-87
2022/05/19 04:12:10;;;;;;;3.92;3.22;;;;;;;16.69;58.82;96108.38;4989548;28;20199;-87
2022/05/19 04:14:36;;;;;;;3.83;3.28;;;;;;;16.86;58.40;96114.75;4986986;28;20195;-86
2022/05/19 04:17:03;;;;;;;3.88;3.40;;;;;;;16.96;57.80;96122.13;4982819;28;20227;-87
2022/05/19 04:19:30;;;;;;;4.43;3.20;;;;;;;17.08;57.68;96110.09;4990687;28;20226;-86
2022/05/19 04:22:01;;;;;;;4.43;3.38;;;;;;;17.07;60.58;96107.72;4982452;28;20208;-85
2022/05/19 04:24:28;;;;;;;6.57;4.25;;;;;;;17.25;59.60;96111.25;4986451;28;20222;-84
2022/05/19 04:26:57;;;;;;;7.90;4.00;;;;;;;17.38;57.32;96110.41;4991606;28;20694;-84
2022/05/19 04:29:24;;;;;;;5.45;3.60;;;;;;;17.49;56.31;96109.78;4993135;28;20679;-84
2022/05/19 04:31:50;;;;;;;4.15;3.40;;;;;;;17.58;56.00;96116.34;4992346;28;20203;-83
2022/05/19 04:34:16;;;;;;;5.00;3.50;;;;;;;17.54;56.63;96117.75;4992161;28;20292;-84
2022/05/19 04:36:44;;;;;;;3.60;3.20;;;;;;;17.56;58.11;96115.75;4992935;28;20614;-83
2022/05/19 04:39:12;;;;;;;4.25;3.28;;;;;;;17.75;55.93;96121.91;4990705;28;20286;-84
2022/05/19 04:41:38;;;;;;;6.60;3.58;;;;;;;17.87;55.81;96119.44;4991878;28;20196;-84
2022/05/19 04:44:05;;;;;;;3.80;3.13;;;;;;;17.92;54.24;96119.59;4981385;28;20231;-84
2022/05/19 04:46:31;;;;;;;4.43;2.90;;;;;;;17.97;53.71;96125.00;4989813;28;20273;-85
2022/05/19 04:48:58;;;;;;;4.72;3.55;;;;;;;18.13;55.82;96131.50;4992766;28;20719;-83
2022/05/19 04:51:24;;;;;;;4.60;3.28;;;;;;;18.25;55.21;96125.44;4991573;28;20199;-83
2022/05/19 04:53:51;;;;;;;3.90;3.28;;;;;;;18.10;51.95;96135.34;4992161;28;20191;-83
2022/05/19 04:56:18;;;;;;;5.70;3.72;;;;;;;17.96;52.84;96120.78;4984421;28;20285;-83
2022/05/19 04:58:45;;;;;;;8.68;3.70;;;;;;;18.07;55.35;96125.34;4990113;28;20223;-84
2022/05/19 05:01:11;;;;;;;4.25;3.17;;;;;;;18.14;52.67;96120.88;4991923;28;20206;-83
2022/05/19 05:03:38;;;;;;;5.07;3.60;;;;;;;18.18;53.08;96123.88;4988757;28;20313;-85
2022/05/19 05:06:04;;;;;;;3.90;3.47;;;;;;;18.19;54.63;96128.88;4988766;28;20210;-85
2022/05/19 05:08:32;;;;;;;3.80;3.45;;;;;;;18.24;52.71;96123.03;4990854;28;20242;-84
2022/05/19 05:10:59;;;;;;;4.47;3.47;;;;;;;18.33;52.32;96124.34;4991732;28;20202;-84
2022/05/19 05:13:27;;;;;;;5.22;4.50;;;;;;;18.30;52.37;96133.41;4980340;28;20609;-84
2022/05/19 05:15:54;;;;;;;6.40;3.70;;;;;;;18.23;52.70;96135.28;4991064;28;20207;-84
2022/05/19 05:18:21;;;;;;;5.93;3.90;;;;;;;18.09;51.96;96138.94;4989875;28;20812;-84
2022/05/19 05:20:47;;;;;;;4.22;3.80;;;;;;;17.91;52.67;96131.03;4992018;28;20200;-84
2022/05/19 05:23:14;;;;;;;4.15;3.70;;;;;;;18.04;52.59;96136.19;4990595;28;20226;-84
2022/05/19 05:25:41;;;;;;;4.75;3.75;;;;;;;17.97;53.21;96137.22;4991163;28;20195;-85
2022/05/19 05:28:08;;;;;;;4.60;3.75;;;;;;;17.96;53.73;96133.81;4990577;28;20234;-85
2022/05/19 05:30:36;;;;;;;4.10;3.70;;;;;;;18.24;53.09;96141.28;4992416;28;20211;-85
2022/05/19 05:33:05;;;;;;;4.35;3.95;;;;;;;18.30;53.49;96146.44;4990149;28;20863;-85
2022/05/19 05:35:31;;;;;;;5.43;4.18;;;;;;;18.36;53.97;96139.59;4991352;28;20254;-84
2022/05/19 05:37:58;;;;;;;4.13;3.70;;;;;;;18.39;52.88;96146.19;4990702;28;20242;-84
2022/05/19 05:40:26;;;;;;;8.02;3.78;;;;;;;18.31;53.45;96149.84;4992173;28;20195;-84
2022/05/19 05:42:52;;;;;;;9.40;3.83;;;;;;;18.46;53.60;96152.16;4989440;28;20328;-84
2022/05/19 05:45:19;;;;;;;4.38;3.97;;;;;;;18.55;52.76;96143.84;4991668;28;20270;-84
2022/05/19 05:47:47;;;;;;;6.32;3.90;;;;;;;18.56;51.89;96152.47;4991085;28;20223;-85
2022/05/19 05:50:14;;;;;;;6.82;4.28;;;;;;;18.54;52.23;96154.50;4990723;28;20235;-84
2022/05/19 05:52:41;;;;;;;6.05;4.70;;;;;;;18.67;52.40;96151.81;4990100;28;20223;-84
2022/05/19 05:55:08;;;;;;;8.30;5.32;;;;;;;18.75;53.75;96143.72;4994438;28;20204;-85
2022/05/19 05:57:34;;;;;;;5.00;3.80;;;;;;;18.98;54.21;96154.38;4986905;28;20258;-84
2022/05/19 06:00:01;;;;;;;4.22;3.83;;;;;;;19.06;52.63;96144.66;4995034;28;20677;-82
2022/05/19 06:02:28;;;;;;;4.15;3.70;;;;;;;19.04;53.91;96147.50;4993541;28;20285;-85
2022/05/19 06:04:55;;;;;;;4.60;3.42;;;;;;;19.22;53.22;96146.72;4994789;28;20219;-84
2022/05/19 06:07:22;;;;;;;4.90;4.10;;;;;;;19.24;52.36;96152.53;4995112;28;20699;-84
2022/05/19 06:09:49;;;;;;;4.65;4.03;;;;;;;19.36;53.94;96148.19;4993972;28;20215;-85
2022/05/19 06:12:16;;;;;;;4.88;3.70;;;;;;;19.48;53.01;96143.00;4986271;28;20271;-85
2022/05/19 06:14:42;;;;;;;4.78;3.70;;;;;;;19.53;52.42;96157.06;4995089;28;20199;-85
2022/05/19 06:17:09;;;;;;;6.78;4.63;;;;;;;19.43;52.18;96159.34;4994449;28;20618;-85
2022/05/19 06:19:35;;;;;;;6.22;4.00;;;;;;;19.32;52.40;96150.41;4995680;28;20203;-84
2022/05/19 06:22:03;;;;;;;6.10;4.00;;;;;;;19.62;53.97;96158.38;4993658;28;20777;-84
2022/05/19 06:24:29;;;;;;;15.30;12.07;;;;;;;19.91;53.78;96156.78;4987657;28;20249;-85
2022/05/19 06:26:56;;;;;;;8.13;6.55;;;;;;;20.03;53.46;96151.59;4995623;28;20218;-84
2022/05/19 06:29:22;;;;;;;4.10;3.75;;;;;;;20.13;51.45;96156.31;4995638;28;20694;-83
2022/05/19 06:31:49;;;;;;;4.55;4.15;;;;;;;20.06;52.11;96150.38;4993788;28;20270;-84
2022/05/19 06:34:15;;;;;;;4.43;3.95;;;;;;;20.20;51.48;96163.06;4987217;28;20247;-84
2022/05/19 06:36:42;;;;;;;9.85;4.25;;;;;;;20.28;52.74;96152.28;4995117;28;20211;-84
2022/05/19 06:39:10;;;;;;;8.27;4.53;;;;;;;20.25;51.63;96152.72;4998412;28;20231;-84
2022/05/19 06:42:14;;;;;;;4.43;3.97;;;;;;;20.38;51.54;96156.22;4992180;28;20679;-90
2022/05/19 06:44:49;;;;;;;4.43;4.00;;;;;;;20.22;51.98;96160.19;4990097;28;20690;-84
2022/05/19 06:47:15;;;;;;;5.45;4.22;;;;;;;20.31;51.31;96158.88;4993543;28;20714;-85
2022/05/19 06:49:51;;;;;;;5.85;4.22;;;;;;;20.41;50.81;96167.00;4994552;28;20200;-85
2022/05/19 06:52:31;;;;;;;3.95;3.65;;;;;;;20.46;51.99;96158.47;4992031;28;20313;-84
2022/05/19 06:55:06;;;;;;;4.78;4.15;;;;;;;20.57;52.40;96158.53;4994779;28;20207;-83
2022/05/19 06:57:41;;;;;;;5.00;4.15;;;;;;;20.63;51.62;96157.59;4988202;28;20235;-89
2022/05/19 07:09:57;;;;;;;9.13;4.45;;;;;;;20.87;51.71;96162.88;4935224;29;20627;-90
2022/05/19 07:16:14;;;;;;;5.53;3.85;;;;;;;21.07;51.69;96162.53;4986056;28;20250;-88
2022/05/19 08:25:29;;;;;;;6.47;3.70;;;;;;;24.51;46.26;96163.88;4861731;28;20328;-87
2022/05/19 08:36:07;;;;;;;4.07;3.67;;;;;;;24.99;46.19;96158.53;4786170;29;20232;-88
2022/05/19 08:46:33;;;;;;;3.30;3.00;;;;;;;25.43;44.44;96158.25;4771848;30;20238;-88
2022/05/19 09:00:17;;;;;;;;;;;;;;;;;;;;;
2022/05/19 09:03:52;;;;;;;3.33;2.97;;;;;;;26.34;43.00;96155.19;4980141;28;20252;-89
2022/05/19 09:17:33;;;;;;;;;;;;;;;;;;;;;
2022/05/19 09:44:45;;;;;;;3.35;3.00;;;;;;;28.19;39.32;96141.09;4839135;29;20227;-90
2022/05/19 09:47:57;;;;;;;4.45;3.30;;;;;;;28.18;40.28;96139.47;4993650;28;20588;-88
2022/05/19 09:53:59;;;;;;;6.05;3.50;;;;;;;28.44;40.76;96134.84;4984056;28;20325;-88
2022/05/19 10:06:44;;;;;;;3.67;3.33;;;;;;;29.01;40.32;96125.38;4951939;29;20225;-88
2022/05/19 10:09:41;;;;;;;4.80;3.50;;;;;;;29.13;39.92;96128.44;4961909;28;20782;-88
2022/05/19 10:23:51;;;;;;;;;;;;;;;;;;;;;
2022/05/19 10:36:50;;;;;;;4.78;3.65;;;;;;;29.71;39.33;96108.97;4984081;28;20286;-90
2022/05/19 10:40:03;;;;;;;5.35;3.63;;;;;;;29.69;39.28;96119.09;4992594;28;20200;-90
2022/05/19 10:43:02;;;;;;;6.07;3.70;;;;;;;29.81;40.32;96111.50;4987850;28;20229;-89
2022/05/19 10:46:07;;;;;;;4.75;3.60;;;;;;;30.07;40.32;96106.66;4997419;28;20219;-88
2022/05/19 10:52:39;;;;;;;3.78;3.47;;;;;;;30.19;39.00;96099.06;4991492;28;20235;-88
2022/05/19 10:59:36;;;;;;;5.43;3.55;;;;;;;30.43;40.59;96096.28;4992162;28;20238;-89
2022/05/19 11:17:50;;;;;;;;;;;;;;;;;;;;;
2022/05/19 11:24:24;;;;;;;;;;;;;;;;;;;;;
2022/05/19 11:43:06;;;;;;;;;;;;;;;;;;;;;
2022/05/19 11:46:22;;;;;;;5.18;3.97;;;;;;;30.85;37.25;96060.78;4974986;28;20200;-88
2022/05/19 11:55:19;;;;;;;5.93;3.63;;;;;;;30.89;39.20;96059.91;4980703;28;20248;-88
2022/05/19 12:04:58;;;;;;;4.90;3.83;;;;;;;31.22;38.75;96054.53;4847043;29;20236;-88
2022/05/19 12:07:50;;;;;;;4.55;3.53;;;;;;;31.20;38.12;96054.81;4892928;29;20254;-88
2022/05/19 12:11:08;;;;;;;15.95;14.13;;;;;;;30.99;38.98;96040.28;4899294;29;20296;-88
2022/05/19 12:33:34;;;;;;;4.40;3.45;;;;;;;31.69;35.78;96034.69;4942461;28;20255;-88
2022/05/19 12:36:31;;;;;;;4.60;4.30;;;;;;;31.82;36.41;96039.19;4951174;28;20276;-88
2022/05/19 12:42:34;;;;;;;4.70;3.50;;;;;;;31.87;37.51;96039.06;4948803;28;20227;-88
2022/05/19 12:52:08;;;;;;;4.80;3.05;;;;;;;31.85;36.77;96027.94;4909387;29;20581;-87
2022/05/19 12:55:23;;;;;;;5.07;3.50;;;;;;;31.92;35.96;96030.97;4910658;29;20839;-88
2022/05/19 12:58:20;;;;;;;5.30;3.72;;;;;;;31.90;35.43;96027.81;4951498;28;20297;-88
2022/05/19 13:05:00;;;;;;;;;;;;;;;;;;;;;
2022/05/19 13:11:21;;;;;;;4.57;3.40;;;;;;;31.96;34.90;96025.81;4942080;28;20688;-89
2022/05/19 13:14:29;;;;;;;9.32;3.45;;;;;;;31.94;36.01;96018.13;4956267;28;20345;-87
2022/05/19 13:16:56;;;;;;;12.10;3.35;;;;;;;31.93;34.94;96013.91;4971986;23;20270;-84
2022/05/19 13:19:25;;;;;;;3.28;3.00;;;;;;;32.12;34.94;96021.72;4990182;28;20199;-84
2022/05/19 13:22:02;;;;;;;9.00;8.15;;;;;;;32.22;34.94;96016.16;4989286;28;20231;-84
2022/05/19 13:24:35;;;;;;;7.00;3.95;;;;;;;32.25;34.17;96020.88;4990142;28;20199;-83
2022/05/19 13:32:33;;;;;;;4.35;3.22;;;;;;;31.60;35.83;96023.13;4989685;28;20238;-84
2022/05/19 13:35:03;;;;;;;4.00;3.63;;;;;;;31.27;36.34;96022.50;4990304;28;20180;-85
2022/05/19 13:37:30;;;;;;;3.70;3.38;;;;;;;31.21;36.45;96013.03;4990475;28;20638;-86
2022/05/19 13:40:15;;;;;;;3.42;3.05;;;;;;;31.03;36.84;96014.69;4990298;28;20203;-86
2022/05/19 13:42:45;;;;;;;3.85;3.17;;;;;;;31.28;36.93;96013.44;4989949;28;20235;-84
2022/05/19 13:45:16;;;;;;;3.20;2.90;;;;;;;31.44;37.49;96008.56;4990046;28;20208;-86
2022/05/19 13:47:44;;;;;;;4.28;2.95;;;;;;;31.55;35.98;96004.63;4990059;28;20310;-86
2022/05/19 13:50:18;;;;;;;7.85;3.22;;;;;;;31.62;34.69;96001.53;4989717;28;20223;-86
2022/05/19 13:52:46;;;;;;;4.13;3.10;;;;;;;31.68;34.94;96005.69;4989652;28;20230;-86
2022/05/19 13:55:25;;;;;;;5.95;3.15;;;;;;;31.47;34.89;96000.78;4989871;28;20204;-86
2022/05/19 13:57:53;;;;;;;7.07;3.20;;;;;;;31.51;35.16;96000.97;4989968;28;20229;-86
2022/05/19 14:00:21;;;;;;;5.25;2.75;;;;;;;31.41;34.17;95991.31;4989778;28;20230;-85
2022/05/19 14:02:48;;;;;;;3.38;2.97;;;;;;;31.30;34.31;95997.16;4989932;28;20246;-86
2022/05/19 14:05:21;;;;;;;4.68;3.30;;;;;;;31.04;34.04;95996.84;4990277;28;20293;-86
2022/05/19 14:07:49;;;;;;;4.38;2.80;;;;;;;31.06;33.87;95997.34;4989821;28;20778;-86
2022/05/19 14:10:19;;;;;;;2.92;2.60;;;;;;;31.22;34.43;95991.44;4989209;28;20273;-86
2022/05/19 14:12:51;;;;;;;3.10;2.80;;;;;;;31.35;33.82;95987.22;4989337;28;20231;-86
2022/05/19 14:15:27;;;;;;;4.00;2.75;;;;;;;31.41;34.07;95983.31;4992404;28;20734;-86
2022/05/19 14:17:56;;;;;;;3.55;3.00;;;;;;;31.44;34.42;95995.25;4993146;28;20314;-86
2022/05/19 14:20:27;;;;;;;3.80;2.75;;;;;;;31.38;33.09;95985.78;4992849;28;20259;-86
2022/05/19 14:22:56;;;;;;;4.88;3.13;;;;;;;31.38;33.88;95988.47;4992761;28;20227;-86
2022/05/19 14:25:24;;;;;;;6.38;3.25;;;;;;;31.31;34.03;95988.88;4993229;28;20199;-86
2022/05/19 14:28:00;;;;;;;4.65;3.03;;;;;;;31.37;33.63;95987.66;4993133;28;20880;-86
2022/05/19 14:30:30;;;;;;;5.85;5.03;;;;;;;31.48;34.66;95985.59;4992948;28;20206;-84
2022/05/19 14:33:01;;;;;;;14.15;12.95;;;;;;;31.46;33.52;95975.25;4992966;28;20607;-86
2022/05/19 14:35:39;;;;;;;6.90;6.07;;;;;;;31.51;34.54;95977.81;4992871;28;20204;-84
2022/05/19 14:38:16;;;;;;;5.28;3.40;;;;;;;31.47;34.14;95984.00;4992947;28;20652;-84
2022/05/19 14:43:38;;;;;;;4.18;2.72;;;;;;;31.37;34.05;95977.03;4992230;28;20235;-84
2022/05/19 14:46:04;;;;;;;5.97;2.80;;;;;;;31.31;32.86;95972.13;4992782;28;20200;-83
2022/05/19 14:48:35;;;;;;;3.67;2.65;;;;;;;31.11;32.01;95974.13;4992517;28;20207;-84
2022/05/19 14:51:03;;;;;;;3.05;2.70;;;;;;;30.91;32.04;95971.84;4992568;28;20294;-84
2022/05/19 14:53:33;;;;;;;3.00;2.70;;;;;;;30.95;32.73;95964.84;4992413;28;20247;-84
2022/05/19 14:56:05;;;;;;;4.10;2.75;;;;;;;30.99;32.54;95957.84;4992308;28;20691;-86
2022/05/19 14:58:39;;;;;;;5.80;2.75;;;;;;;31.08;32.68;95949.94;4992752;28;20302;-85
2022/05/19 15:01:06;;;;;;;3.10;2.80;;;;;;;31.15;33.54;95953.81;4991965;28;20671;-86
2022/05/19 15:03:33;;;;;;;3.17;2.72;;;;;;;31.16;33.46;95946.63;4991963;28;20656;-86
2022/05/19 15:05:59;;;;;;;15.68;14.15;;;;;;;31.20;34.04;95947.59;4992390;28;20639;-86
2022/05/19 15:08:28;;;;;;;11.57;10.57;;;;;;;31.25;34.49;95952.81;4992759;28;20203;-85
2022/05/19 15:10:55;;;;;;;4.30;3.90;;;;;;;31.19;33.78;95954.78;4992366;28;20203;-86
2022/05/19 15:13:22;;;;;;;3.40;3.10;;;;;;;31.20;33.12;95955.56;4992182;28;20638;-86
2022/05/19 15:15:50;;;;;;;3.33;2.80;;;;;;;31.23;33.65;95947.78;4992628;28;20199;-86
2022/05/19 15:18:17;;;;;;;3.67;2.75;;;;;;;31.23;32.64;95947.78;4992435;28;20231;-86
2022/05/19 15:20:45;;;;;;;4.18;3.00;;;;;;;31.17;32.98;95949.00;4992219;28;20204;-85
2022/05/19 15:23:12;;;;;;;3.13;2.83;;;;;;;31.18;33.19;95949.75;4991861;28;20389;-86
2022/05/19 15:25:41;;;;;;;4.25;2.92;;;;;;;31.16;33.56;95946.63;4991589;28;20226;-86
2022/05/19 15:28:09;;;;;;;5.00;3.00;;;;;;;31.03;33.51;95953.50;4991877;28;20255;-86
2022/05/19 15:30:36;;;;;;;2.97;2.55;;;;;;;31.04;34.78;95946.31;4991557;28;20211;-86
2022/05/19 15:33:04;;;;;;;4.35;3.00;;;;;;;31.04;35.27;95951.63;4991568;28;20321;-86
2022/05/19 15:35:31;;;;;;;4.85;2.80;;;;;;;31.02;33.79;95954.59;4991810;28;20199;-86
2022/05/19 15:37:58;;;;;;;5.05;3.10;;;;;;;30.98;33.70;95948.31;4989276;28;20312;-84
2022/05/19 15:40:26;;;;;;;5.03;2.90;;;;;;;30.99;33.30;95952.50;4989568;28;20254;-84
2022/05/19 15:42:53;;;;;;;3.25;2.95;;;;;;;31.02;33.31;95951.91;4990162;28;20230;-84
2022/05/19 15:45:19;;;;;;;3.30;2.97;;;;;;;31.08;33.75;95945.41;4991860;28;20218;-84
2022/05/19 15:47:48;;;;;;;5.13;2.95;;;;;;;31.02;33.66;95951.13;4990706;28;20274;-85
2022/05/19 15:50:19;;;;;;;3.70;3.00;;;;;;;30.83;33.13;95945.94;4988401;28;20196;-84
2022/05/19 15:52:47;;;;;;;3.13;2.85;;;;;;;30.78;33.64;95940.72;4985847;28;20223;-84
2022/05/19 15:55:14;;;;;;;4.53;3.10;;;;;;;30.67;33.31;95942.78;4988725;28;20206;-85
2022/05/19 15:57:41;;;;;;;4.63;3.10;;;;;;;30.63;33.80;95936.47;4989999;28;20219;-84
2022/05/19 16:00:10;;;;;;;4.20;3.17;;;;;;;30.66;34.42;95945.72;4989398;28;20221;-84
2022/05/19 16:02:39;;;;;;;7.35;3.10;;;;;;;30.67;34.45;95947.31;4990242;28;20239;-84
2022/05/19 16:05:07;;;;;;;5.55;3.25;;;;;;;30.62;34.43;95947.41;4990591;28;20211;-84
2022/05/19 16:07:36;;;;;;;3.75;2.85;;;;;;;30.65;34.42;95950.25;4990231;28;20212;-84
2022/05/19 16:10:04;;;;;;;5.80;3.45;;;;;;;30.55;34.77;95940.63;4989123;28;20207;-84
2022/05/19 16:12:34;;;;;;;6.68;3.95;;;;;;;30.52;35.49;95953.69;4990009;28;20237;-84
2022/05/19 16:15:04;;;;;;;4.22;3.40;;;;;;;30.45;34.74;95942.63;4988886;28;20203;-84
2022/05/19 16:17:31;;;;;;;4.85;3.30;;;;;;;30.37;34.38;95951.31;4989371;28;20219;-84
2022/05/19 16:19:57;;;;;;;5.43;3.08;;;;;;;30.36;35.91;95955.81;4989436;28;20207;-84
2022/05/19 16:22:27;;;;;;;5.50;3.42;;;;;;;30.26;35.85;95957.84;4989904;28;20227;-84
2022/05/19 16:24:57;;;;;;;4.15;3.15;;;;;;;30.20;35.61;95949.22;4989943;28;20655;-84
2022/05/19 16:27:24;;;;;;;4.40;3.10;;;;;;;30.14;36.19;95961.00;4990508;28;20230;-84
2022/05/19 16:29:52;;;;;;;6.93;3.50;;;;;;;29.96;35.95;95961.78;4988999;28;20731;-84
2022/05/19 16:32:19;;;;;;;5.05;3.30;;;;;;;29.83;35.82;95948.16;4989582;28;20707;-84
2022/05/19 16:34:48;;;;;;;4.95;3.53;;;;;;;29.72;36.15;95952.06;4989492;28;20195;-84
2022/05/19 16:37:20;;;;;;;3.58;2.90;;;;;;;29.63;36.67;95953.81;4989401;28;20231;-86
2022/05/19 16:39:46;;;;;;;3.25;2.95;;;;;;;29.52;36.72;95955.81;4989440;28;20216;-86
2022/05/19 16:42:14;;;;;;;4.32;3.30;;;;;;;29.47;36.81;95947.91;4989554;28;20230;-86
2022/05/19 16:44:41;;;;;;;4.35;3.38;;;;;;;29.44;37.25;95953.03;4989232;28;20196;-84
2022/05/19 16:47:08;;;;;;;5.53;3.38;;;;;;;29.30;37.71;95954.75;4990814;28;20222;-84
2022/05/19 16:49:35;;;;;;;3.78;3.28;;;;;;;29.28;37.72;95951.59;4991330;28;20696;-86
2022/05/19 16:52:01;;;;;;;4.03;3.50;;;;;;;29.23;38.16;95947.19;4994325;28;20227;-85
2022/05/19 16:58:20;;;;;;;3.92;3.55;;;;;;;29.06;39.72;95952.94;4950109;28;20240;-87
2022/05/19 17:07:04;;;;;;;5.25;3.80;;;;;;;28.96;39.67;95955.72;4979445;28;20251;-87
2022/05/19 17:09:31;;;;;;;4.85;3.83;;;;;;;28.94;39.77;95957.88;4989012;28;20207;-88
2022/05/19 17:11:58;;;;;;;3.78;3.10;;;;;;;28.90;40.26;95945.44;4988447;28;20227;-88
2022/05/19 17:14:40;;;;;;;4.00;3.58;;;;;;;28.90;40.25;95945.44;4988513;28;20199;-89
2022/05/19 17:17:14;;;;;;;4.90;3.65;;;;;;;28.84;40.94;95956.13;4985721;28;20269;-90
2022/05/19 17:19:40;;;;;;;6.43;3.47;;;;;;;28.80;40.73;95954.34;4989936;28;20693;-85
2022/05/19 17:22:08;;;;;;;5.15;3.78;;;;;;;28.74;41.13;95953.56;4987569;28;20226;-85
2022/05/19 17:24:35;;;;;;;3.72;3.45;;;;;;;28.71;41.21;95955.97;4989953;28;20255;-86
2022/05/19 17:27:01;;;;;;;5.13;4.05;;;;;;;28.68;41.70;95957.34;4987517;28;20219;-87
2022/05/19 17:29:29;;;;;;;5.80;4.10;;;;;;;28.64;42.75;95959.00;4989509;28;20192;-88
2022/05/19 17:31:56;;;;;;;4.88;4.10;;;;;;;28.56;42.81;95958.81;4987803;28;20263;-87
2022/05/19 17:34:22;;;;;;;5.90;4.60;;;;;;;28.53;43.20;95958.28;4989438;28;20207;-87
2022/05/19 17:36:49;;;;;;;5.70;5.10;;;;;;;28.52;42.75;95966.53;4988880;28;20227;-86
2022/05/19 17:39:15;;;;;;;4.68;4.28;;;;;;;28.49;42.31;95962.56;4988386;28;20290;-86
2022/05/19 17:41:41;;;;;;;5.90;4.38;;;;;;;28.47;41.93;95964.72;4987419;28;20196;-85
2022/05/19 17:44:08;;;;;;;4.75;4.15;;;;;;;28.46;41.48;95959.72;4988814;28;20207;-85
2022/05/19 17:46:37;;;;;;;5.50;3.85;;;;;;;28.43;41.35;95968.22;4987713;28;20781;-85
2022/05/19 17:49:05;;;;;;;5.18;4.30;;;;;;;28.39;41.43;95961.88;4990425;28;20195;-85
2022/05/19 17:51:31;;;;;;;4.78;4.25;;;;;;;28.30;41.89;95971.50;4991272;28;20198;-85
2022/05/19 17:53:58;;;;;;;6.00;4.82;;;;;;;28.26;41.57;95962.56;4993161;28;20622;-85
2022/05/19 17:56:27;;;;;;;4.55;4.15;;;;;;;28.19;41.43;95976.06;4992614;28;20219;-85
2022/05/19 17:58:54;;;;;;;4.32;3.90;;;;;;;28.17;41.22;95979.00;4991632;28;20282;-85
2022/05/19 18:01:20;;;;;;;5.82;3.90;;;;;;;28.10;40.96;95977.72;4991112;28;20196;-85